Time;durP1;ratioP1;P1;durP2;ratioP2;P2;SDS_P1;SDS_P2;PMS_P1;PMS_P2;Temp;Humidity;BMP_temperature;BMP_pressure;BME280_temperature;BME280_humidity;BME280_pressure;Samples;Min_cycle;Max_cycle;Signal;HPM_P1;HPM_P2
2022/01/01 00:00:21;;;;;;;32.00;17.95;;;;;;;-2.38;98.82;98547.81;6245415;22;20077;-79
2022/01/01 00:02:47;;;;;;;32.22;17.90;;;;;;;-2.36;98.41;98545.22;6245093;22;20016;-79
2022/01/01 00:05:13;;;;;;;49.40;29.30;;;;;;;-2.34;98.66;98538.34;6219910;22;20371;-79
2022/01/01 00:07:39;;;;;;;53.38;30.45;;;;;;;-2.32;98.59;98539.16;6245076;22;20020;-79
2022/01/01 00:10:07;;;;;;;50.92;27.85;;;;;;;-2.39;98.59;98518.03;6245042;22;20373;-79
2022/01/01 00:12:33;;;;;;;48.70;25.05;;;;;;;-2.30;98.20;98519.53;6220824;22;20523;-78
2022/01/01 00:14:59;;;;;;;44.33;24.02;;;;;;;-2.25;98.28;98521.06;6196084;22;20164;-79
2022/01/01 00:17:25;;;;;;;39.53;23.45;;;;;;;-2.25;98.46;98523.63;6273070;22;20097;-79
2022/01/01 00:19:51;;;;;;;39.85;21.90;;;;;;;-2.25;98.15;98515.97;6242461;22;20019;-76
2022/01/01 00:22:17;;;;;;;46.63;24.05;;;;;;;-2.20;98.34;98511.59;6243486;22;20137;-76
2022/01/01 00:24:43;;;;;;;42.78;22.73;;;;;;;-2.21;98.32;98511.63;6271833;22;20023;-77
2022/01/01 00:27:10;;;;;;;38.35;21.90;;;;;;;-2.18;98.37;98517.50;6197193;22;20020;-78
2022/01/01 00:29:36;;;;;;;47.50;30.05;;;;;;;-2.20;98.38;98511.59;6196573;22;20019;-77
2022/01/01 00:32:02;;;;;;;35.75;19.92;;;;;;;-2.24;98.58;98504.88;6246473;22;20547;-78
2022/01/01 00:34:28;;;;;;;40.08;25.52;;;;;;;-2.20;98.68;98513.31;6195930;22;20016;-77
2022/01/01 00:36:55;;;;;;;39.30;22.60;;;;;;;-2.23;98.61;98500.63;6245705;22;20077;-78
2022/01/01 00:39:21;;;;;;;30.38;17.20;;;;;;;-2.18;98.71;98514.09;6257404;22;20047;-81
2022/01/01 00:41:47;;;;;;;10.98;9.98;;;;;;;-2.19;99.01;98508.13;6203588;22;20015;-76
2022/01/01 00:44:13;;;;;;;34.22;19.20;;;;;;;-2.15;99.13;98499.53;6256284;22;20027;-81
2022/01/01 00:46:39;;;;;;;43.85;22.38;;;;;;;-2.13;99.00;98502.88;6238188;22;20019;-84
2022/01/01 00:49:06;;;;;;;36.13;21.45;;;;;;;-2.14;99.00;98497.81;6242907;22;20020;-81
2022/01/01 00:51:34;;;;;;;35.47;20.65;;;;;;;-2.11;98.99;98492.63;6268313;22;20042;-81
2022/01/01 00:54:01;;;;;;;41.38;21.63;;;;;;;-2.11;99.21;98479.84;6266858;22;20066;-82
2022/01/01 00:56:30;;;;;;;30.95;18.35;;;;;;;-2.02;99.39;98494.09;6234119;22;20024;-81
2022/01/01 00:58:56;;;;;;;34.05;17.52;;;;;;;-2.03;99.17;98483.03;6233849;22;20019;-81
2022/01/01 01:01:22;;;;;;;31.55;17.33;;;;;;;-2.07;99.49;98475.50;6276322;22;20019;-79
2022/01/01 01:03:48;;;;;;;14.73;10.50;;;;;;;-2.00;99.55;98482.97;6198409;22;20043;-79
2022/01/01 01:06:14;;;;;;;14.55;9.10;;;;;;;-1.99;99.30;98483.78;6248410;22;20027;-79
2022/01/01 01:08:41;;;;;;;26.45;14.35;;;;;;;-1.98;99.72;98477.78;6247930;22;20015;-80
2022/01/01 01:11:08;;;;;;;30.33;17.20;;;;;;;-1.97;99.86;98477.75;6247605;22;20019;-80
2022/01/01 01:13:35;;;;;;;37.25;21.23;;;;;;;-1.96;99.88;98476.06;6251796;22;20401;-80
2022/01/01 01:16:01;;;;;;;24.58;15.55;;;;;;;-2.01;99.86;98462.53;6227926;22;20047;-81
2022/01/01 01:18:27;;;;;;;35.90;18.52;;;;;;;-1.92;100.00;98475.06;6249525;22;20027;-79
2022/01/01 01:20:53;;;;;;;32.17;18.80;;;;;;;-1.97;100.00;98454.75;6274097;22;20070;-79
2022/01/01 01:23:20;;;;;;;36.45;18.08;;;;;;;-1.89;100.00;98464.75;6248040;22;20119;-79
2022/01/01 01:25:46;;;;;;;32.40;17.40;;;;;;;-1.91;100.00;98464.81;6248816;22;20037;-80
2022/01/01 01:28:13;;;;;;;30.50;17.50;;;;;;;-1.88;99.95;98463.88;6228180;22;20089;-81
2022/01/01 01:30:40;;;;;;;32.40;18.17;;;;;;;-1.94;100.00;98456.38;6251483;22;20081;-81
2022/01/01 01:33:07;;;;;;;35.30;19.02;;;;;;;-1.92;100.00;98449.50;6174002;22;20042;-79
2022/01/01 01:35:33;;;;;;;40.17;18.42;;;;;;;-1.89;100.00;98462.19;6221101;22;20448;-79
2022/01/01 01:37:59;;;;;;;31.75;18.05;;;;;;;-1.97;100.00;98436.03;6221163;22;20102;-79
2022/01/01 01:40:25;;;;;;;43.30;19.08;;;;;;;-1.91;100.00;98451.19;6196582;22;20026;-79
2022/01/01 01:42:51;;;;;;;41.83;19.98;;;;;;;-1.88;100.00;98456.22;6247971;22;20020;-80
2022/01/01 01:45:20;;;;;;;46.72;22.38;;;;;;;-1.85;100.00;98446.75;6247951;22;20497;-80
2022/01/01 01:47:49;;;;;;;39.03;21.00;;;;;;;-1.87;100.00;98443.41;6198859;22;20022;-80
2022/01/01 01:50:16;;;;;;;44.05;21.58;;;;;;;-1.88;100.00;98440.88;6225087;22;20012;-78
2022/01/01 01:52:45;;;;;;;44.05;20.38;;;;;;;-1.82;100.00;98438.13;6199809;22;20027;-79
2022/01/01 01:55:12;;;;;;;44.38;19.92;;;;;;;-1.78;100.00;98444.84;6225770;22;20047;-79
2022/01/01 01:57:39;;;;;;;44.08;20.40;;;;;;;-1.76;100.00;98450.75;6248384;22;20023;-80
2022/01/01 02:00:17;;;;;;;18.02;8.98;;;;;;;-1.75;100.00;98444.75;6274673;22;20016;-79
2022/01/01 02:02:43;;;;;;;37.40;20.42;;;;;;;-1.81;100.00;98434.72;6249310;22;20016;-79
2022/01/01 02:05:09;;;;;;;29.80;15.20;;;;;;;-1.80;100.00;98433.84;6274984;22;20042;-77
2022/01/01 02:07:35;;;;;;;42.85;18.52;;;;;;;-1.73;99.96;98441.28;6197805;22;20024;-79
2022/01/01 02:10:06;;;;;;;45.83;21.98;;;;;;;-1.71;100.00;98449.75;6247484;22;20415;-78
2022/01/01 02:12:33;;;;;;;51.67;21.35;;;;;;;-1.70;99.99;98446.28;6198667;22;20097;-78
2022/01/01 02:17:25;;;;;;;41.10;18.35;;;;;;;-1.68;100.00;98453.94;6274339;22;20336;-77
2022/01/01 02:19:59;;;;;;;37.17;17.77;;;;;;;-1.68;99.89;98446.25;6273942;22;20042;-78
2022/01/01 02:22:26;;;;;;;34.92;17.45;;;;;;;-1.66;99.49;98444.50;6274573;22;20015;-78
2022/01/01 02:24:53;;;;;;;35.05;19.80;;;;;;;-1.62;99.67;98446.09;6274349;22;20058;-80
2022/01/01 02:27:19;;;;;;;37.90;18.00;;;;;;;-1.62;99.99;98444.38;6247920;22;20020;-78
2022/01/01 02:29:45;;;;;;;27.23;15.50;;;;;;;-1.60;99.52;98445.16;6222181;22;20039;-78
2022/01/01 02:32:14;;;;;;;35.72;18.20;;;;;;;-1.56;99.71;98440.78;6274918;22;20022;-78
2022/01/01 02:34:41;;;;;;;19.73;12.48;;;;;;;-1.57;99.66;98441.66;6246843;22;20019;-78
2022/01/01 02:37:08;;;;;;;28.50;16.27;;;;;;;-1.59;99.81;98444.28;6248006;22;20023;-78
2022/01/01 02:39:37;;;;;;;23.05;13.15;;;;;;;-1.58;100.00;98443.41;6274810;22;20052;-78
2022/01/01 02:42:05;;;;;;;20.15;14.10;;;;;;;-1.58;99.82;98440.84;6247650;22;20468;-77
2022/01/01 02:44:32;;;;;;;27.90;13.63;;;;;;;-1.55;100.00;98434.81;6222780;22;20016;-79
2022/01/01 02:46:58;;;;;;;24.15;14.75;;;;;;;-1.55;100.00;98434.81;6246849;22;20488;-78
2022/01/01 02:49:24;;;;;;;23.85;15.70;;;;;;;-1.53;100.00;98439.84;6247090;22;20016;-74
2022/01/01 02:51:50;;;;;;;13.27;9.18;;;;;;;-1.55;100.00;98434.81;6273157;22;20106;-75
2022/01/01 02:54:16;;;;;;;12.65;10.80;;;;;;;-1.57;100.00;98439.94;6273786;22;20095;-75
2022/01/01 02:56:42;;;;;;;17.85;12.85;;;;;;;-1.57;100.00;98439.09;6246182;22;20067;-75
2022/01/01 02:59:08;;;;;;;20.90;14.80;;;;;;;-1.54;100.00;98443.31;6246457;22;20016;-74
2022/01/01 03:01:34;;;;;;;25.52;16.00;;;;;;;-1.53;99.91;98442.41;6273648;22;20085;-75
2022/01/01 03:04:00;;;;;;;21.08;14.48;;;;;;;-1.55;99.77;98434.81;6245893;22;20020;-74
2022/01/01 03:06:28;;;;;;;20.80;13.90;;;;;;;-1.51;100.00;98436.38;6273464;22;20455;-74
2022/01/01 03:08:56;;;;;;;19.27;13.80;;;;;;;-1.50;100.00;98432.94;6246143;22;20042;-74
2022/01/01 03:11:22;;;;;;;17.13;11.80;;;;;;;-1.50;99.77;98430.38;6273772;22;20345;-75
2022/01/01 03:13:48;;;;;;;18.95;13.20;;;;;;;-1.47;99.80;98427.72;6221205;22;20015;-74
2022/01/01 03:16:14;;;;;;;15.25;12.55;;;;;;;-1.49;100.00;98426.94;6246482;22;20486;-75
2022/01/01 03:18:41;;;;;;;15.52;12.52;;;;;;;-1.48;99.98;98428.63;6221554;22;20464;-72
2022/01/01 03:21:07;;;;;;;17.70;13.70;;;;;;;-1.49;99.65;98424.38;6273568;22;20016;-76
2022/01/01 03:23:33;;;;;;;13.20;10.05;;;;;;;-1.44;100.00;98426.81;6246581;22;20021;-74
2022/01/01 03:25:59;;;;;;;19.77;13.70;;;;;;;-1.44;99.81;98422.50;6273012;22;20016;-75
2022/01/01 03:28:26;;;;;;;16.17;10.75;;;;;;;-1.44;99.62;98417.38;6221448;22;20016;-73
2022/01/01 03:30:51;;;;;;;46.78;15.02;;;;;;;-1.49;100.00;98409.03;6220812;22;20023;-74
2022/01/01 03:33:18;;;;;;;21.38;13.60;;;;;;;-1.45;100.00;98420.00;6273568;22;20038;-75
2022/01/01 03:35:44;;;;;;;23.77;16.05;;;;;;;-1.45;99.97;98420.00;6272813;22;20368;-73
2022/01/01 03:38:10;;;;;;;20.65;14.13;;;;;;;-1.46;100.00;98408.94;6220836;22;20023;-74
2022/01/01 03:40:36;;;;;;;23.55;14.05;;;;;;;-1.42;100.00;98407.97;6273354;22;20459;-74
2022/01/01 03:43:05;;;;;;;23.60;14.00;;;;;;;-1.43;100.00;98413.97;6220822;22;20024;-73
2022/01/01 03:45:31;;;;;;;17.33;11.38;;;;;;;-1.47;100.00;98402.13;6246609;22;20027;-73
2022/01/01 03:47:57;;;;;;;14.48;10.13;;;;;;;-1.44;100.00;98407.16;6272613;22;20382;-74
2022/01/01 03:50:23;;;;;;;14.93;11.43;;;;;;;-1.46;100.00;98411.50;6245424;22;20077;-75
2022/01/01 03:52:49;;;;;;;19.25;13.93;;;;;;;-1.44;100.00;98417.38;6274671;22;20420;-74
2022/01/01 03:55:15;;;;;;;17.23;12.13;;;;;;;-1.47;100.00;98407.25;6275525;22;20027;-73
2022/01/01 03:57:41;;;;;;;26.08;13.70;;;;;;;-1.50;100.00;98399.66;6247406;22;20023;-74
2022/01/01 04:00:15;;;;;;;20.52;13.90;;;;;;;-1.45;100.00;98410.63;6245810;22;20047;-74
2022/01/01 04:02:43;;;;;;;23.35;13.45;;;;;;;-1.41;100.00;98413.94;6273015;22;20027;-74
2022/01/01 04:05:13;;;;;;;23.58;14.88;;;;;;;-1.42;100.00;98410.53;6273001;22;20016;-74
2022/01/01 04:07:39;;;;;;;23.73;14.57;;;;;;;-1.43;100.00;98403.72;6273059;22;20026;-74
2022/01/01 04:10:05;;;;;;;24.35;14.98;;;;;;;-1.37;100.00;98411.22;6273008;22;20016;-74
2022/01/01 04:12:31;;;;;;;25.10;15.73;;;;;;;-1.43;100.00;98403.72;6246184;22;20027;-74
2022/01/01 04:15:00;;;;;;;19.17;13.32;;;;;;;-1.37;100.00;98412.94;6245577;22;20039;-76
2022/01/01 04:17:27;;;;;;;23.95;14.20;;;;;;;-1.37;100.00;98413.75;6245859;22;20020;-74
2022/01/01 04:19:53;;;;;;;22.27;14.13;;;;;;;-1.38;100.00;98399.31;6271299;22;20368;-74
2022/01/01 04:22:19;;;;;;;24.33;14.68;;;;;;;-1.34;100.00;98398.31;6273170;22;20015;-73
2022/01/01 04:24:45;;;;;;;19.73;12.70;;;;;;;-1.35;100.00;98412.03;6272906;22;20020;-74
2022/01/01 04:27:11;;;;;;;25.40;14.77;;;;;;;-1.32;100.00;98414.47;6246517;22;20027;-73
2022/01/01 04:29:38;;;;;;;27.23;13.88;;;;;;;-1.31;100.00;98418.69;6273538;22;20015;-75
2022/01/01 04:32:05;;;;;;;23.13;14.93;;;;;;;-1.33;100.00;98417.91;6274718;22;20016;-75
2022/01/01 04:34:31;;;;;;;14.60;10.65;;;;;;;-1.31;100.00;98418.69;6274313;22;20016;-75
2022/01/01 04:37:03;;;;;;;20.45;13.20;;;;;;;-1.29;100.00;98419.50;6246760;22;20471;-74
2022/01/01 04:39:29;;;;;;;22.25;14.25;;;;;;;-1.28;100.00;98408.41;6290813;22;20026;-73
2022/01/01 04:41:55;;;;;;;19.92;11.88;;;;;;;-1.31;100.00;98403.34;6266079;22;20020;-74
2022/01/01 04:44:21;;;;;;;21.65;11.38;;;;;;;-1.25;100.00;98408.28;6294095;22;20106;-72
2022/01/01 04:46:47;;;;;;;18.13;10.23;;;;;;;-1.29;100.00;98411.81;6265338;22;20026;-72
2022/01/01 04:49:13;;;;;;;22.55;11.98;;;;;;;-1.28;100.00;98398.16;6277951;22;20024;-74
2022/01/01 04:51:39;;;;;;;25.58;14.02;;;;;;;-1.22;100.00;98413.31;6220973;22;20019;-74
2022/01/01 04:54:12;;;;;;;22.10;12.60;;;;;;;-1.28;100.00;98402.44;6273153;22;20027;-75
2022/01/01 04:56:43;;;;;;;8.02;6.90;;;;;;;-1.24;100.00;98420.19;6273111;22;20015;-75
2022/01/01 04:59:10;;;;;;;16.92;11.70;;;;;;;-1.23;100.00;98415.91;6221856;22;20126;-75
2022/01/01 05:01:37;;;;;;;20.35;12.48;;;;;;;-1.22;100.00;98420.16;6274669;22;20456;-75
2022/01/01 05:04:03;;;;;;;23.30;13.07;;;;;;;-1.20;100.00;98424.34;6223131;22;20039;-73
2022/01/01 05:06:29;;;;;;;24.38;11.68;;;;;;;-1.23;100.00;98427.00;6248846;22;20059;-74
2022/01/01 05:08:55;;;;;;;18.58;12.55;;;;;;;-1.20;100.00;98426.06;6277742;22;20046;-75
2022/01/01 05:11:21;;;;;;;28.52;13.50;;;;;;;-1.22;100.00;98423.56;6226327;22;20429;-75
2022/01/01 05:13:47;;;;;;;21.17;12.13;;;;;;;-1.15;100.00;98424.19;6225484;22;20023;-74
2022/01/01 05:16:17;;;;;;;17.60;11.50;;;;;;;-1.19;100.00;98428.56;6224096;22;20349;-75
2022/01/01 05:18:43;;;;;;;24.85;13.32;;;;;;;-1.12;100.00;98427.50;6277200;22;20019;-73
2022/01/01 05:21:12;;;;;;;15.65;9.93;;;;;;;-1.14;100.00;98436.94;6249935;22;20099;-74
2022/01/01 05:23:38;;;;;;;25.17;12.43;;;;;;;-1.09;100.00;98435.09;6250199;22;20075;-74
2022/01/01 05:26:04;;;;;;;19.90;11.38;;;;;;;-1.11;100.00;98434.28;6250306;22;20061;-74
2022/01/01 05:28:30;;;;;;;20.67;13.57;;;;;;;-1.12;100.00;98440.31;6277013;22;20016;-75
2022/01/01 05:30:56;;;;;;;18.55;12.63;;;;;;;-1.08;100.00;98436.75;6225686;22;20020;-75
2022/01/01 05:33:22;;;;;;;20.23;12.18;;;;;;;-1.13;100.00;98430.94;6278971;22;20023;-74
2022/01/01 05:35:51;;;;;;;24.55;13.13;;;;;;;-1.10;100.00;98432.56;6252580;22;20026;-73
2022/01/01 05:38:17;;;;;;;19.95;11.60;;;;;;;-1.07;100.00;98443.56;6278027;22;20359;-74
2022/01/01 05:40:44;;;;;;;15.77;11.55;;;;;;;-1.05;100.00;98446.88;6279639;22;20027;-74
2022/01/01 05:43:13;;;;;;;20.67;11.55;;;;;;;-1.07;100.00;98446.13;6251942;22;20047;-75
2022/01/01 05:45:42;;;;;;;14.20;9.45;;;;;;;-1.09;100.00;98447.91;6277342;22;20019;-74
2022/01/01 05:48:09;;;;;;;17.75;11.73;;;;;;;-1.06;100.00;98458.03;6249821;22;20019;-73
2022/01/01 05:50:35;;;;;;;16.88;11.23;;;;;;;-1.00;100.00;98453.59;6276793;22;20597;-74
2022/01/01 05:53:01;;;;;;;16.80;11.95;;;;;;;-0.97;100.00;98459.47;6250076;22;20142;-73
2022/01/01 05:55:27;;;;;;;19.98;12.30;;;;;;;-0.97;100.00;98458.63;6250796;22;20053;-73
2022/01/01 05:57:53;;;;;;;18.55;11.75;;;;;;;-0.96;100.00;98457.75;6252529;22;20035;-76
2022/01/01 06:00:19;;;;;;;17.00;11.93;;;;;;;-0.98;100.00;98459.53;6279587;22;20023;-74
2022/01/01 06:02:45;;;;;;;21.92;12.20;;;;;;;-0.97;100.00;98458.63;6278797;22;20466;-74
2022/01/01 06:05:11;;;;;;;19.48;11.23;;;;;;;-0.94;100.00;98468.75;6280084;22;20521;-74
2022/01/01 06:07:38;;;;;;;18.02;11.85;;;;;;;-0.96;100.00;98460.31;6253102;22;20070;-73
2022/01/01 06:10:05;;;;;;;23.35;13.05;;;;;;;-0.97;100.00;98458.63;6250440;22;20016;-74
2022/01/01 06:12:37;;;;;;;19.92;12.85;;;;;;;-0.89;100.00;98464.34;6250497;22;20020;-73
2022/01/01 06:15:03;;;;;;;23.02;12.90;;;;;;;-0.90;100.00;98460.09;6277030;22;20372;-74
2022/01/01 06:17:29;;;;;;;17.65;12.32;;;;;;;-0.88;100.00;98463.47;6250434;22;20031;-74
2022/01/01 06:19:55;;;;;;;19.42;11.75;;;;;;;-0.95;100.00;98462.84;6250380;22;20104;-73
2022/01/01 06:22:21;;;;;;;14.93;11.10;;;;;;;-0.97;100.00;98463.75;6249639;22;20019;-74
2022/01/01 06:24:47;;;;;;;17.42;11.70;;;;;;;-0.90;100.00;98462.66;6224645;22;20016;-74
2022/01/01 06:27:13;;;;;;;17.42;11.45;;;;;;;-0.91;100.00;98458.41;6276320;22;20368;-74
2022/01/01 06:29:42;;;;;;;20.25;12.27;;;;;;;-0.89;100.00;98461.78;6278218;22;20027;-76
2022/01/01 06:32:11;;;;;;;20.27;11.27;;;;;;;-0.96;100.00;98450.91;6277704;22;20020;-74
2022/01/01 06:34:37;;;;;;;14.15;10.80;;;;;;;-0.90;100.00;98457.53;6275321;22;20070;-74
2022/01/01 06:37:03;;;;;;;21.73;11.75;;;;;;;-0.90;100.00;98452.44;6221647;22;20103;-74
2022/01/01 06:39:29;;;;;;;15.15;11.35;;;;;;;-0.87;100.00;98454.88;6223975;22;20107;-74
2022/01/01 06:41:55;;;;;;;15.05;10.73;;;;;;;-0.85;100.00;98458.25;6278669;22;20023;-74
2022/01/01 06:44:21;;;;;;;17.30;10.05;;;;;;;-0.80;100.00;98461.50;6277797;22;20020;-74
2022/01/01 06:46:47;;;;;;;19.73;10.90;;;;;;;-0.81;100.00;98454.69;6248159;22;20020;-74
2022/01/01 06:49:14;;;;;;;12.55;10.93;;;;;;;-0.78;100.00;98468.25;6247582;22;20020;-74
2022/01/01 06:51:40;;;;;;;14.15;11.05;;;;;;;-0.78;100.00;98458.00;6221717;22;20023;-74
2022/01/01 06:54:06;;;;;;;15.45;11.73;;;;;;;-0.77;99.82;98462.25;6273846;22;20015;-73
2022/01/01 06:56:32;;;;;;;13.55;10.45;;;;;;;-0.78;99.56;98460.56;6274067;22;20098;-75
2022/01/01 06:58:58;;;;;;;14.38;10.63;;;;;;;-0.77;99.56;98467.38;6274053;22;20050;-75
2022/01/01 07:01:24;;;;;;;17.85;11.85;;;;;;;-0.76;99.74;98463.09;6274174;22;20047;-73
2022/01/01 07:03:50;;;;;;;11.35;9.02;;;;;;;-0.85;99.42;98453.94;6275586;22;20027;-78
2022/01/01 07:06:16;;;;;;;13.35;10.77;;;;;;;-0.75;99.71;98464.72;6247345;22;20016;-78
2022/01/01 07:08:42;;;;;;;14.65;10.98;;;;;;;-0.78;99.29;98469.94;6247210;22;20513;-76
2022/01/01 07:11:08;;;;;;;15.15;10.40;;;;;;;-0.78;99.37;98465.69;6247105;22;20020;-80
2022/01/01 07:13:34;;;;;;;11.55;9.75;;;;;;;-0.77;99.28;98462.25;6247820;22;20375;-76
2022/01/01 07:16:00;;;;;;;16.50;11.60;;;;;;;-0.75;99.23;98454.47;6273261;22;20361;-75
2022/01/01 07:18:26;;;;;;;14.63;10.77;;;;;;;-0.75;98.94;98454.47;6278217;22;20506;-79
2022/01/01 07:20:52;;;;;;;19.52;10.75;;;;;;;-0.70;98.75;98462.88;6221931;22;20030;-81
2022/01/01 07:23:18;;;;;;;14.23;10.40;;;;;;;-0.67;98.80;98467.91;6273744;22;20102;-78
2022/01/01 07:25:44;;;;;;;20.20;11.13;;;;;;;-0.73;98.85;98460.41;6246118;22;20109;-78
2022/01/01 07:28:14;;;;;;;17.58;10.57;;;;;;;-0.72;98.19;98462.09;6245580;22;20020;-79
2022/01/01 07:30:40;;;;;;;13.82;10.85;;;;;;;-0.65;98.35;98472.09;6244158;22;20023;-76
2022/01/01 07:33:06;;;;;;;15.38;11.23;;;;;;;-0.63;98.20;98472.88;6218988;22;20478;-79
2022/01/01 07:35:36;;;;;;;15.10;10.43;;;;;;;-0.61;97.73;98465.13;6244830;22;20023;-78
2022/01/01 07:38:02;;;;;;;12.02;10.25;;;;;;;-0.59;97.67;98465.94;6245192;22;20093;-79
2022/01/01 07:40:35;;;;;;;14.60;10.15;;;;;;;-0.58;97.23;98465.03;6244597;22;20471;-80
2022/01/01 07:43:02;;;;;;;14.90;10.98;;;;;;;-0.50;96.33;98469.91;6271232;22;20096;-78
2022/01/01 07:45:28;;;;;;;15.73;11.20;;;;;;;-0.48;96.69;98474.09;6244392;22;20436;-79
2022/01/01 07:47:54;;;;;;;13.85;9.50;;;;;;;-0.53;96.19;98483.69;6244430;22;20094;-78
2022/01/01 07:50:20;;;;;;;13.60;10.10;;;;;;;-0.46;96.14;98472.34;6270933;22;20169;-76
2022/01/01 07:52:46;;;;;;;16.27;11.10;;;;;;;-0.41;96.10;98479.84;6271728;22;20016;-78
2022/01/01 07:55:12;;;;;;;14.90;8.88;;;;;;;-0.34;95.51;98465.97;6272407;22;20024;-77
2022/01/01 07:57:38;;;;;;;12.93;9.57;;;;;;;-0.32;95.26;98464.16;6273230;22;20103;-78
2022/01/01 08:00:07;;;;;;;12.93;10.15;;;;;;;-0.28;95.16;98476.84;6273181;22;20405;-79
2022/01/01 08:02:43;;;;;;;10.27;8.50;;;;;;;-0.32;94.63;98474.41;6246038;22;20058;-78
2022/01/01 08:05:09;;;;;;;12.32;9.10;;;;;;;-0.31;94.46;98476.94;6196061;22;20364;-79
2022/01/01 08:07:35;;;;;;;13.63;9.38;;;;;;;-0.29;94.51;98482.00;6273653;22;20016;-78
2022/01/01 08:10:02;;;;;;;17.85;9.35;;;;;;;-0.32;94.60;98482.13;6245892;22;20031;-78
2022/01/01 08:12:28;;;;;;;15.43;10.40;;;;;;;-0.27;94.57;98477.69;6220622;22;20143;-77
2022/01/01 08:14:56;;;;;;;15.15;9.55;;;;;;;-0.22;94.47;98486.03;6273354;22;20015;-79
2022/01/01 08:17:23;;;;;;;15.63;9.60;;;;;;;-0.27;94.42;98483.66;6245230;22;20474;-76
2022/01/01 08:19:50;;;;;;;16.10;10.35;;;;;;;-0.26;94.11;98490.44;6246257;22;20015;-76
2022/01/01 08:22:16;;;;;;;15.93;10.80;;;;;;;-0.23;94.23;98492.09;6272708;22;20570;-78
2022/01/01 08:24:42;;;;;;;18.45;11.43;;;;;;;-0.13;93.94;98490.88;6246069;22;20046;-77
2022/01/01 08:27:08;;;;;;;19.30;11.25;;;;;;;0.00;94.30;98484.44;6193184;22;20019;-78
2022/01/01 08:29:34;;;;;;;14.98;10.77;;;;;;;-0.04;93.67;98486.28;6243925;22;20459;-79
2022/01/01 08:32:00;;;;;;;15.27;11.07;;;;;;;-0.15;93.48;98485.78;6219152;22;20019;-76
2022/01/01 08:34:26;;;;;;;18.60;12.10;;;;;;;-0.06;92.87;98495.72;6246724;22;20043;-79
2022/01/01 08:36:52;;;;;;;13.30;10.77;;;;;;;-0.13;93.03;98486.56;6246873;22;20023;-78
2022/01/01 08:39:19;;;;;;;15.82;9.52;;;;;;;-0.15;92.85;98488.34;6244672;22;20349;-78
2022/01/01 08:41:45;;;;;;;15.95;10.00;;;;;;;-0.11;93.07;98495.06;6219055;22;20341;-76
2022/01/01 08:44:11;;;;;;;14.38;10.15;;;;;;;-0.09;92.87;98490.72;6246037;22;20043;-77
2022/01/01 08:46:41;;;;;;;15.98;8.02;;;;;;;-0.24;93.65;98488.69;6272925;22;20051;-78
2022/01/01 08:49:07;;;;;;;34.70;19.00;;;;;;;-0.21;93.42;98498.81;6220613;22;20027;-76
2022/01/01 08:51:34;;;;;;;15.02;9.43;;;;;;;-0.04;93.20;98490.56;6245942;22;20019;-78
2022/01/01 08:54:01;;;;;;;12.15;10.32;;;;;;;-0.01;92.67;98491.31;6145860;22;20213;-79
2022/01/01 08:56:28;;;;;;;13.52;9.70;;;;;;;-0.12;92.67;98490.81;6195817;22;20024;-78
2022/01/01 08:58:54;;;;;;;10.27;9.25;;;;;;;-0.12;91.82;98492.53;6272453;22;20023;-77
2022/01/01 09:01:20;;;;;;;3.55;3.25;;;;;;;-0.15;91.89;98487.53;6244842;22;20046;-76
2022/01/01 09:03:50;;;;;;;11.05;9.95;;;;;;;-0.15;91.08;98485.78;6273313;22;20359;-77
2022/01/01 09:06:19;;;;;;;12.10;9.82;;;;;;;-0.13;91.88;98486.56;6245624;22;20367;-77
2022/01/01 09:08:45;;;;;;;11.80;9.95;;;;;;;0.01;91.57;98483.53;6245595;22;20051;-77
2022/01/01 09:11:18;;;;;;;11.95;10.13;;;;;;;-0.02;90.45;98483.66;6242205;22;20463;-80
2022/01/01 09:13:45;;;;;;;13.20;9.70;;;;;;;0.00;90.41;98482.69;6246094;22;20026;-75
2022/01/01 09:16:11;;;;;;;11.25;9.50;;;;;;;0.06;90.27;98480.81;6195071;22;20015;-75
2022/01/01 09:18:47;;;;;;;10.45;9.35;;;;;;;-0.02;89.69;98460.56;6219734;22;20097;-76
2022/01/01 09:21:14;;;;;;;11.13;10.02;;;;;;;0.05;89.93;98476.56;6193970;22;20416;-73
2022/01/01 09:23:44;;;;;;;13.00;10.38;;;;;;;-0.06;89.63;98467.53;6171546;22;20023;-73
2022/01/01 09:26:14;;;;;;;15.00;9.77;;;;;;;-0.05;90.04;98469.22;6273026;22;20016;-75
2022/01/01 09:28:45;;;;;;;9.55;8.65;;;;;;;0.02;89.08;98476.69;6223096;22;20360;-74
2022/01/01 09:31:15;;;;;;;8.52;7.70;;;;;;;-0.03;87.01;98475.09;6245499;22;20027;-74
2022/01/01 09:33:41;;;;;;;5.28;4.72;;;;;;;-0.02;84.32;98448.59;6245616;22;20060;-76
2022/01/01 09:36:12;;;;;;;6.25;5.75;;;;;;;0.04;83.94;98456.94;6245773;22;20023;-76
2022/01/01 11:34:46;;;;;;;7.15;4.68;;;;;;;-0.45;83.52;98466.31;6267282;22;20367;-76
2022/01/01 11:37:14;;;;;;;4.80;4.43;;;;;;;-0.42;83.38;98458.50;6245777;22;20161;-78
2022/01/01 11:39:41;;;;;;;5.63;5.15;;;;;;;-0.46;83.66;98456.97;6271564;22;20092;-76
2022/01/01 11:42:12;;;;;;;4.80;3.75;;;;;;;-0.41;81.92;98451.66;6245712;22;20027;-76
2022/01/01 11:44:40;;;;;;;4.93;4.53;;;;;;;-0.40;82.57;98451.63;6273610;22;20016;-76
2022/01/01 11:47:19;;;;;;;5.75;3.80;;;;;;;-0.35;80.88;98452.31;6246381;22;20015;-78
2022/01/01 11:49:48;;;;;;;;;;;;;;;-0.31;80.92;98453.03;6225609;22;20016;-74
2022/01/01 11:52:44;;;;;;;5.43;5.03;;;;;;;-0.41;81.67;98457.63;6245577;22;19922;-75
2022/01/01 11:55:13;;;;;;;4.97;4.57;;;;;;;-0.48;83.33;98453.59;6221352;22;20405;-78
2022/01/01 11:57:53;;;;;;;5.60;5.25;;;;;;;-0.54;85.04;98453.81;6246437;22;20045;-77
2022/01/01 12:00:21;;;;;;;5.13;4.63;;;;;;;-0.51;83.50;98453.69;6249315;22;20091;-78
2022/01/01 12:03:07;;;;;;;7.13;4.35;;;;;;;-0.59;84.23;98448.00;6246013;22;20043;-78
2022/01/01 12:05:41;;;;;;;;;;;;;;;-0.55;84.25;98455.53;6246762;22;20069;-78
2022/01/01 12:08:07;;;;;;;4.93;4.63;;;;;;;-0.57;83.49;98454.75;6272806;22;19947;-78
2022/01/01 12:10:35;;;;;;;5.13;4.72;;;;;;;-0.57;83.84;98459.03;6245872;22;20024;-75
2022/01/01 12:13:02;;;;;;;5.30;4.80;;;;;;;-0.57;84.08;98464.16;6272869;22;20113;-77
2022/01/01 12:15:35;;;;;;;5.95;3.97;;;;;;;-0.51;82.17;98451.13;6276497;22;20026;-79
2022/01/01 12:18:06;;;;;;;2.70;2.50;;;;;;;-0.39;79.75;98458.41;6278554;22;20507;-82
2022/01/01 12:20:41;;;;;;;2.70;2.50;;;;;;;-0.41;80.30;98461.91;6277959;22;20043;-82
2022/01/01 12:23:13;;;;;;;2.63;2.53;;;;;;;-0.45;81.21;98463.75;6225508;22;20073;-79
2022/01/01 12:26:17;;;;;;;4.72;4.32;;;;;;;-0.42;81.43;98467.91;6171044;22;20099;-79
2022/01/01 12:28:43;;;;;;;4.40;4.10;;;;;;;-0.52;81.09;98456.34;6246687;22;20024;-80
2022/01/01 12:31:16;;;;;;;2.63;2.53;;;;;;;-0.43;80.88;98467.13;6147242;22;20062;-78
2022/01/01 12:33:48;;;;;;;4.35;4.03;;;;;;;-0.44;80.45;98459.47;6246706;22;20049;-77
2022/01/01 12:36:22;;;;;;;3.72;3.42;;;;;;;-0.36;79.98;98471.13;6276632;22;20019;-79
2022/01/01 12:39:08;;;;;;;3.88;3.58;;;;;;;-0.38;80.22;98465.22;6248892;22;20028;-75
2022/01/01 12:41:37;;;;;;;3.38;3.17;;;;;;;-0.36;80.79;98476.25;6194943;22;20031;-78
2022/01/01 12:44:12;;;;;;;4.10;3.80;;;;;;;-0.38;80.86;98480.59;6244864;22;20042;-78
2022/01/01 12:46:43;;;;;;;3.88;3.55;;;;;;;-0.42;81.49;98493.56;6221003;22;20073;-78
2022/01/01 12:49:59;;;;;;;4.50;4.20;;;;;;;-0.47;82.26;98491.16;6272549;22;20329;-79
2022/01/01 12:52:25;;;;;;;4.05;3.75;;;;;;;-0.48;82.69;98488.63;6188483;22;20113;-79
2022/01/01 12:54:52;;;;;;;6.25;5.50;;;;;;;-0.47;81.79;98486.03;6220162;22;20016;-78
2022/01/01 12:57:18;;;;;;;5.20;4.32;;;;;;;-0.48;81.79;98484.34;6244940;22;20122;-78
2022/01/01 12:59:48;;;;;;;5.13;4.65;;;;;;;-0.55;82.84;98493.13;6245800;22;20027;-77
2022/01/01 13:02:15;;;;;;;5.13;4.72;;;;;;;-0.58;83.45;98506.03;6246427;22;20016;-77
2022/01/01 13:04:41;;;;;;;4.70;4.30;;;;;;;-0.50;83.40;98500.66;6246331;22;20020;-75
2022/01/01 13:07:07;;;;;;;4.22;3.92;;;;;;;-0.61;82.68;98488.19;6220938;22;20016;-78
2022/01/01 13:09:35;;;;;;;5.72;5.32;;;;;;;-0.59;82.50;98502.63;6221114;22;20384;-76
2022/01/01 13:12:02;;;;;;;6.05;4.70;;;;;;;-0.52;82.87;98504.09;6194761;22;20527;-77
2022/01/01 13:14:30;;;;;;;5.32;4.82;;;;;;;-0.56;83.17;98504.28;6219854;22;20416;-79
2022/01/01 13:16:56;;;;;;;4.70;4.30;;;;;;;-0.62;83.16;98499.31;6246083;22;20110;-77
2022/01/01 13:19:23;;;;;;;4.88;4.38;;;;;;;-0.60;83.91;98511.22;6220065;22;20129;-76